createdAt,value
2023-01-21T00:01:11.394Z,77.45
2023-01-21T00:03:39.632Z,78.10
2023-01-21T00:06:08.341Z,78.38
2023-01-21T00:08:36.323Z,78.82
2023-01-21T00:11:07.710Z,79.53
2023-01-21T00:13:36.570Z,79.51
2023-01-21T00:16:05.448Z,80.42
2023-01-21T00:18:35.378Z,80.17
2023-01-21T00:21:03.617Z,80.01
2023-01-21T00:23:31.610Z,79.68
2023-01-21T00:26:00.094Z,79.18
2023-01-21T00:28:29.497Z,78.27
2023-01-21T00:31:01.575Z,78.77
2023-01-21T00:33:30.255Z,79.17
2023-01-21T00:36:01.530Z,79.58
2023-01-21T00:38:30.048Z,78.40
2023-01-21T00:41:01.885Z,78.93
2023-01-21T00:43:29.669Z,80.57
2023-01-21T00:45:57.845Z,81.47
2023-01-21T00:48:26.201Z,81.26
2023-01-21T00:50:55.877Z,80.32
2023-01-21T00:53:25.203Z,80.31
2023-01-21T00:55:52.927Z,79.74
2023-01-21T00:58:20.955Z,79.53
2023-01-21T01:00:48.832Z,80.66
2023-01-21T01:03:16.643Z,80.47
2023-01-21T01:05:44.644Z,79.64
2023-01-21T01:08:12.370Z,78.83
2023-01-21T01:10:41.519Z,78.72
2023-01-21T01:13:09.354Z,79.11
2023-01-21T01:15:37.163Z,78.78
2023-01-21T01:18:05.201Z,79.73
2023-01-21T01:20:32.975Z,79.33
2023-01-21T01:23:00.859Z,79.36
2023-01-21T01:25:28.643Z,80.00
2023-01-21T01:27:57.824Z,78.91
2023-01-21T01:30:25.625Z,79.05
2023-01-21T01:32:53.420Z,79.38
2023-01-21T01:35:21.222Z,79.14
2023-01-21T01:37:49.069Z,79.34
2023-01-21T01:40:17.192Z,80.20
2023-01-21T01:42:45.094Z,80.50
2023-01-21T01:45:21.471Z,79.29
2023-01-21T01:47:58.101Z,78.76
2023-01-21T01:50:30.030Z,78.75
2023-01-21T01:53:00.212Z,79.42
2023-01-21T01:55:29.464Z,79.52
2023-01-21T01:57:58.820Z,80.00
2023-01-21T02:00:28.740Z,79.98
2023-01-21T02:03:15.578Z,79.90
2023-01-21T02:05:45.055Z,79.68
2023-01-21T02:08:13.099Z,80.03
2023-01-21T02:10:40.942Z,79.36
2023-01-21T02:13:09.020Z,78.87
2023-01-21T02:15:56.426Z,78.47
2023-01-21T02:18:33.079Z,78.49
2023-01-21T02:21:37.793Z,78.44
2023-01-21T02:24:44.077Z,78.38
2023-01-21T02:27:37.350Z,78.67
2023-01-21T02:30:42.141Z,77.53
2023-01-21T02:33:22.495Z,79.47
2023-01-21T02:35:56.110Z,80.21
2023-01-21T02:38:30.936Z,80.06
2023-01-21T02:41:07.211Z,80.09
2023-01-21T02:43:44.422Z,79.32
2023-01-21T02:46:19.556Z,78.86
2023-01-21T02:48:57.746Z,78.51
2023-01-21T02:51:26.060Z,78.40
2023-01-21T02:53:53.880Z,78.16
2023-01-21T02:56:25.900Z,78.75
2023-01-21T02:58:59.709Z,79.84
2023-01-21T03:01:38.093Z,79.37
2023-01-21T03:04:29.281Z,79.46
2023-01-21T03:07:07.555Z,78.12
2023-01-21T03:09:37.283Z,78.01
2023-01-21T03:12:22.500Z,78.59
2023-01-21T03:15:18.446Z,78.56
2023-01-21T03:17:52.724Z,78.88
2023-01-21T03:20:27.008Z,78.69
2023-01-21T03:23:00.400Z,78.53
2023-01-21T03:25:30.365Z,78.66
2023-01-21T03:28:01.098Z,78.64
2023-01-21T03:30:31.075Z,78.12
2023-01-21T03:33:00.076Z,76.88
2023-01-21T03:35:32.966Z,76.76
2023-01-21T03:38:09.085Z,76.95
2023-01-21T03:40:41.809Z,76.04
2023-01-21T03:43:10.792Z,76.02
2023-01-21T03:45:44.276Z,76.06
2023-01-21T03:48:20.045Z,75.99
2023-01-21T03:50:55.407Z,75.91
2023-01-21T03:53:23.446Z,75.72
2023-01-21T03:55:51.705Z,75.57
2023-01-21T03:58:19.696Z,73.45
2023-01-21T04:00:49.226Z,68.66
2023-01-21T04:03:17.180Z,70.39
2023-01-21T04:05:44.974Z,74.20
2023-01-21T04:08:14.235Z,75.89
2023-01-21T04:10:42.052Z,76.74
2023-01-21T04:13:09.910Z,76.91
2023-01-21T04:15:37.723Z,76.66
2023-01-21T04:18:05.591Z,76.89
2023-01-21T04:20:33.430Z,77.49
2023-01-21T04:23:01.288Z,76.93
2023-01-21T04:25:30.410Z,77.45
2023-01-21T04:27:58.267Z,77.15
2023-01-21T04:30:26.245Z,76.55
2023-01-21T04:32:54.191Z,75.87
2023-01-21T04:35:22.012Z,75.20
2023-01-21T04:37:49.816Z,75.56
2023-01-21T04:40:18.446Z,74.29
2023-01-21T04:42:47.716Z,73.48
2023-01-21T04:45:15.666Z,74.73
2023-01-21T04:47:44.269Z,73.89
2023-01-21T04:50:14.165Z,72.76
2023-01-21T04:52:42.541Z,72.91
2023-01-21T04:55:11.503Z,72.43
2023-01-21T04:57:39.374Z,72.21
2023-01-21T05:00:10.815Z,71.90
2023-01-21T05:02:38.768Z,71.91
2023-01-21T05:05:07.610Z,72.43
2023-01-21T05:07:35.453Z,71.42
2023-01-21T05:10:03.272Z,69.63
2023-01-21T05:12:31.085Z,69.39
2023-01-21T05:14:58.936Z,70.00
2023-01-21T05:17:28.124Z,69.92
2023-01-21T05:19:55.849Z,71.35
2023-01-21T05:22:23.658Z,72.27
2023-01-21T05:24:51.457Z,72.46
2023-01-21T05:27:19.949Z,72.28
2023-01-21T05:29:47.749Z,72.25
2023-01-21T05:32:15.582Z,72.55
2023-01-21T05:34:44.729Z,74.34
2023-01-21T05:37:12.996Z,75.03
2023-01-21T05:39:41.026Z,74.21
2023-01-21T05:42:08.842Z,73.42
2023-01-21T05:44:36.844Z,72.71
2023-01-21T05:47:04.690Z,72.38
2023-01-21T05:49:32.575Z,72.17
2023-01-21T05:52:02.384Z,72.08
2023-01-21T05:54:30.237Z,72.49
2023-01-21T05:56:58.091Z,72.13
2023-01-21T05:59:26.091Z,72.00
2023-01-21T06:01:54.038Z,72.56
2023-01-21T06:04:23.933Z,70.75
2023-01-21T06:06:51.806Z,72.16
2023-01-21T06:09:20.897Z,72.03
2023-01-21T06:11:48.693Z,72.95
2023-01-21T06:14:16.495Z,72.97
2023-01-21T06:16:44.274Z,72.46
2023-01-21T06:19:12.012Z,71.59
2023-01-21T06:21:39.866Z,71.08
2023-01-21T06:24:08.132Z,71.78
2023-01-21T06:26:37.372Z,71.33
2023-01-21T06:29:05.231Z,70.06
2023-01-21T06:31:33.099Z,70.19
2023-01-21T06:34:01.031Z,69.79
2023-01-21T06:36:28.871Z,70.10
2023-01-21T06:38:56.648Z,68.12
2023-01-21T06:41:24.469Z,69.68
2023-01-21T06:43:53.685Z,70.06
2023-01-21T06:46:21.518Z,70.37
2023-01-21T06:48:49.310Z,70.51
2023-01-21T06:51:17.213Z,71.34
2023-01-21T06:53:45.028Z,71.59
2023-01-21T06:56:12.836Z,72.25
2023-01-21T06:58:40.584Z,71.61
2023-01-21T07:01:09.744Z,71.98
2023-01-21T07:03:37.607Z,71.78
2023-01-21T07:06:05.724Z,71.87
2023-01-21T07:08:33.500Z,72.89
2023-01-21T07:11:01.356Z,72.55
2023-01-21T07:13:29.144Z,72.61
2023-01-21T07:16:00.693Z,72.82
2023-01-21T07:18:30.024Z,72.19
2023-01-21T07:20:58.241Z,72.52
2023-01-21T07:23:26.239Z,72.70
2023-01-21T07:25:54.041Z,71.72
2023-01-21T07:28:21.867Z,70.94
2023-01-21T07:30:49.639Z,65.37
2023-01-21T07:33:17.509Z,63.52
2023-01-21T07:35:46.631Z,65.23
2023-01-21T07:38:14.489Z,62.60
2023-01-21T07:40:42.224Z,62.85
2023-01-21T07:43:10.314Z,63.04
2023-01-21T07:45:38.251Z,62.79
2023-01-21T07:48:06.659Z,62.88
2023-01-21T07:50:35.412Z,63.42
2023-01-21T07:53:04.709Z,61.83
2023-01-21T07:55:32.748Z,62.02
2023-01-21T07:58:00.954Z,62.17
2023-01-21T08:00:29.217Z,61.61
2023-01-21T08:02:57.599Z,65.87
2023-01-21T08:05:26.360Z,68.39
2023-01-21T08:07:58.059Z,68.72
2023-01-21T08:10:27.981Z,66.07
2023-01-21T08:12:55.710Z,63.59
2023-01-21T08:15:23.591Z,62.08
2023-01-21T08:17:51.365Z,61.30
2023-01-21T08:20:19.547Z,61.40
2023-01-21T08:22:47.330Z,65.42
2023-01-21T08:25:15.258Z,69.07
2023-01-21T08:27:44.577Z,71.30
2023-01-21T08:30:12.979Z,71.25
2023-01-21T08:32:40.742Z,71.72
2023-01-21T08:35:09.680Z,70.77
2023-01-21T08:37:39.600Z,69.95
2023-01-21T08:40:09.058Z,70.21
2023-01-21T08:42:36.834Z,70.67
2023-01-21T08:45:07.495Z,70.12
2023-01-21T08:47:35.309Z,70.20
2023-01-21T08:50:03.488Z,70.10
2023-01-21T08:52:31.291Z,69.99
2023-01-21T08:54:59.154Z,69.75
2023-01-21T08:57:27.920Z,69.36
2023-01-21T08:59:55.762Z,70.02
2023-01-21T09:02:24.983Z,69.19
2023-01-21T09:04:52.797Z,69.48
2023-01-21T09:07:20.623Z,69.17
2023-01-21T09:09:48.914Z,69.24
2023-01-21T09:12:16.765Z,69.22
2023-01-21T09:14:44.617Z,68.97
2023-01-21T09:17:12.470Z,70.00
2023-01-21T09:19:41.605Z,69.44
2023-01-21T09:22:09.454Z,69.50
2023-01-21T09:24:37.228Z,69.43
2023-01-21T09:27:07.207Z,69.70
2023-01-21T09:29:35.631Z,69.35
2023-01-21T09:32:05.187Z,68.96
2023-01-21T09:34:35.576Z,68.68
2023-01-21T09:37:05.249Z,68.78
2023-01-21T09:39:33.125Z,69.02
2023-01-21T09:42:00.863Z,68.76
2023-01-21T09:44:33.316Z,68.09
2023-01-21T09:47:04.953Z,68.57
2023-01-21T09:49:38.984Z,68.46
2023-01-21T09:52:20.237Z,68.54
2023-01-21T09:54:48.261Z,68.55
2023-01-21T09:57:42.383Z,67.97
2023-01-21T10:00:26.976Z,68.41
2023-01-21T10:03:03.098Z,67.48
2023-01-21T10:06:03.931Z,68.07
2023-01-21T10:08:44.488Z,67.98
2023-01-21T10:11:27.727Z,67.68
2023-01-21T10:14:15.491Z,67.67
2023-01-21T10:16:51.505Z,67.03
2023-01-21T10:19:24.511Z,66.72
2023-01-21T10:21:57.013Z,66.11
2023-01-21T10:24:32.242Z,65.50
2023-01-21T10:27:01.293Z,64.92
2023-01-21T10:29:29.884Z,64.74
2023-01-21T10:32:03.286Z,65.03
2023-01-21T10:34:32.815Z,65.34
2023-01-21T10:37:08.494Z,64.90
2023-01-21T10:39:48.723Z,64.25
2023-01-21T10:42:39.684Z,64.01
2023-01-21T10:45:22.797Z,63.37
2023-01-21T10:47:57.762Z,64.50
2023-01-21T10:50:39.199Z,65.11
2023-01-21T10:53:18.377Z,65.08
2023-01-21T10:56:01.643Z,65.06
2023-01-21T10:58:34.637Z,64.91
2023-01-21T11:01:07.467Z,64.56
2023-01-21T11:03:41.195Z,64.59
2023-01-21T11:06:12.424Z,64.98
2023-01-21T11:08:44.519Z,63.90
2023-01-21T11:11:14.282Z,63.44
2023-01-21T11:13:42.178Z,63.25
2023-01-21T11:16:10.031Z,63.47
2023-01-21T11:18:39.817Z,63.69
2023-01-21T11:21:18.475Z,63.99
2023-01-21T11:23:55.033Z,63.35
2023-01-21T11:26:26.945Z,63.04
2023-01-21T11:29:13.672Z,62.86
2023-01-21T11:31:42.940Z,62.77
2023-01-21T11:34:15.105Z,63.26
2023-01-21T11:36:56.189Z,64.00
2023-01-21T11:39:24.985Z,63.92
2023-01-21T11:41:55.318Z,64.00
2023-01-21T11:44:23.870Z,63.62
2023-01-21T11:46:52.695Z,62.99
2023-01-21T11:49:26.193Z,62.79
2023-01-21T11:52:15.323Z,62.27
2023-01-21T11:54:43.404Z,63.71
2023-01-21T11:57:26.770Z,63.60
2023-01-21T11:59:59.076Z,63.57
2023-01-21T12:02:30.692Z,62.35
2023-01-21T12:05:03.013Z,62.59
2023-01-21T12:07:33.935Z,62.71
2023-01-21T12:10:09.058Z,62.47
2023-01-21T12:12:50.507Z,62.13
2023-01-21T12:15:29.371Z,61.54
2023-01-21T12:18:05.352Z,61.45
2023-01-21T12:20:40.135Z,61.52
2023-01-21T12:23:50.232Z,61.64
2023-01-21T12:26:37.824Z,63.33
2023-01-21T12:29:44.498Z,62.80
2023-01-21T12:32:20.625Z,62.95
2023-01-21T12:34:56.997Z,63.59
2023-01-21T12:37:32.291Z,63.79
2023-01-21T12:40:05.609Z,63.34
2023-01-21T12:42:40.352Z,63.52
2023-01-21T12:45:15.424Z,63.90
2023-01-21T12:47:47.935Z,63.88
2023-01-21T12:50:23.697Z,63.00
2023-01-21T12:53:04.934Z,63.31
2023-01-21T12:55:40.132Z,63.33
2023-01-21T12:58:14.014Z,63.89
2023-01-21T13:00:47.169Z,63.65
2023-01-21T13:03:25.971Z,64.03
2023-01-21T13:05:59.832Z,63.21
2023-01-21T13:08:54.499Z,62.63
2023-01-21T13:11:25.181Z,63.90
2023-01-21T13:14:01.014Z,63.79
2023-01-21T13:16:31.348Z,64.55
2023-01-21T13:18:59.797Z,63.42
2023-01-21T13:21:37.358Z,62.42
2023-01-21T13:24:16.696Z,61.47
2023-01-21T13:26:51.524Z,61.74
2023-01-21T13:29:28.165Z,62.40
2023-01-21T13:32:20.244Z,62.49
2023-01-21T13:34:57.011Z,62.05
2023-01-21T13:37:33.298Z,62.52
2023-01-21T13:40:20.056Z,62.90
2023-01-21T13:42:54.704Z,61.85
2023-01-21T13:45:31.514Z,61.28
2023-01-21T13:48:20.833Z,62.50
2023-01-21T13:51:18.963Z,62.71
2023-01-21T13:54:04.473Z,61.94
2023-01-21T13:56:49.161Z,62.59
2023-01-21T13:59:22.529Z,62.93
2023-01-21T14:01:57.120Z,62.73
2023-01-21T14:04:33.753Z,61.49
2023-01-21T14:07:05.685Z,61.56
2023-01-21T14:09:40.301Z,61.25
2023-01-21T14:12:15.731Z,60.93
2023-01-21T14:15:07.866Z,60.33
2023-01-21T14:18:03.237Z,59.98
2023-01-21T14:21:15.895Z,59.98
2023-01-21T14:24:04.965Z,59.24
2023-01-21T14:27:03.581Z,58.86
2023-01-21T14:29:36.527Z,58.82
2023-01-21T14:32:13.799Z,57.95
2023-01-21T14:34:47.752Z,57.05
2023-01-21T14:37:25.272Z,56.89
2023-01-21T14:40:04.539Z,56.17
2023-01-21T14:42:43.510Z,55.53
2023-01-21T14:45:13.883Z,55.89
2023-01-21T14:47:44.862Z,55.53
2023-01-21T14:50:32.805Z,55.92
2023-01-21T14:53:02.031Z,55.94
2023-01-21T14:55:31.726Z,55.44
2023-01-21T14:58:01.877Z,55.98
2023-01-21T15:00:32.169Z,55.74
2023-01-21T15:03:15.410Z,55.47
2023-01-21T15:05:45.636Z,55.72
2023-01-21T15:08:19.966Z,55.57
2023-01-21T15:10:53.379Z,55.94
2023-01-21T15:13:31.779Z,55.37
2023-01-21T15:16:15.347Z,55.82
2023-01-21T15:18:48.441Z,55.13
2023-01-21T15:21:36.317Z,54.70
2023-01-21T15:24:26.062Z,55.71
2023-01-21T15:27:27.975Z,56.20
2023-01-21T15:30:28.636Z,55.81
2023-01-21T15:32:57.220Z,55.47
2023-01-21T15:35:31.365Z,55.78
2023-01-21T15:38:02.924Z,54.70
2023-01-21T15:40:38.264Z,54.85
2023-01-21T15:43:15.500Z,54.81
2023-01-21T15:45:50.562Z,54.86
2023-01-21T15:48:41.964Z,54.20
2023-01-21T15:51:22.292Z,54.33
2023-01-21T15:54:02.618Z,53.83
2023-01-21T15:56:56.832Z,54.15
2023-01-21T15:59:36.938Z,53.69
2023-01-21T16:02:16.739Z,53.36
2023-01-21T16:04:55.005Z,53.59
2023-01-21T16:07:33.239Z,53.43
2023-01-21T16:10:10.040Z,53.98
2023-01-21T16:12:50.350Z,54.32
2023-01-21T16:15:32.447Z,54.46
2023-01-21T16:18:08.675Z,54.87
2023-01-21T16:20:37.119Z,55.04
2023-01-21T16:23:08.620Z,55.24
2023-01-21T16:25:47.461Z,55.67
2023-01-21T16:28:16.906Z,55.73
2023-01-21T16:30:54.525Z,54.99
2023-01-21T16:33:22.729Z,54.57
2023-01-21T16:35:52.681Z,54.84
2023-01-21T16:38:22.397Z,54.84
2023-01-21T16:40:52.020Z,54.80
2023-01-21T16:43:25.873Z,55.09
2023-01-21T16:45:55.378Z,55.17
2023-01-21T16:48:27.583Z,55.63
2023-01-21T16:50:55.732Z,55.75
2023-01-21T16:53:24.866Z,54.68
2023-01-21T16:55:54.727Z,52.53
2023-01-21T16:58:29.596Z,51.54
2023-01-21T17:01:06.142Z,51.78
2023-01-21T17:03:34.658Z,51.64
2023-01-21T17:06:08.575Z,51.90
2023-01-21T17:08:37.565Z,51.66
2023-01-21T17:11:09.207Z,52.08
2023-01-21T17:13:41.080Z,51.62
2023-01-21T17:16:20.966Z,52.38
2023-01-21T17:18:55.328Z,53.10
2023-01-21T17:21:31.682Z,52.30
2023-01-21T17:24:01.828Z,52.27
2023-01-21T17:26:33.219Z,52.72
2023-01-21T17:29:11.137Z,52.80
2023-01-21T17:31:41.142Z,53.19
2023-01-21T17:34:21.413Z,52.70
2023-01-21T17:36:51.488Z,52.28
2023-01-21T17:39:56.694Z,56.24
2023-01-21T17:42:26.922Z,56.94
2023-01-21T17:44:58.257Z,57.10
2023-01-21T17:47:30.251Z,58.61
2023-01-21T17:50:01.312Z,58.54
2023-01-21T17:52:29.440Z,58.98
2023-01-21T17:55:15.230Z,59.72
2023-01-21T17:57:43.155Z,59.78
2023-01-21T18:00:31.933Z,59.77
2023-01-21T18:02:59.769Z,59.97
2023-01-21T18:05:28.461Z,60.36
2023-01-21T18:07:56.292Z,60.45
2023-01-21T18:10:27.303Z,60.76
2023-01-21T18:12:56.291Z,60.75
2023-01-21T18:15:24.294Z,61.23
2023-01-21T18:17:55.898Z,61.18
2023-01-21T18:20:25.659Z,60.46
2023-01-21T18:22:54.858Z,60.86
2023-01-21T18:25:23.815Z,61.57
2023-01-21T18:27:54.783Z,61.56
2023-01-21T18:30:25.049Z,61.80
2023-01-21T18:32:55.129Z,61.57
2023-01-21T18:35:26.804Z,61.35
2023-01-21T18:37:54.651Z,61.48
2023-01-21T18:40:24.250Z,61.64
2023-01-21T18:42:55.489Z,61.91
2023-01-21T18:45:26.678Z,61.30
2023-01-21T18:47:56.374Z,61.59
2023-01-21T18:50:25.839Z,62.26
2023-01-21T18:52:54.167Z,62.64
2023-01-21T18:55:23.823Z,62.77
2023-01-21T18:57:52.218Z,62.76
2023-01-21T19:00:23.502Z,62.53
2023-01-21T19:02:53.497Z,62.77
2023-01-21T19:05:25.311Z,63.39
2023-01-21T19:07:53.213Z,63.52
2023-01-21T19:10:21.826Z,63.50
2023-01-21T19:12:49.936Z,62.72
2023-01-21T19:15:20.457Z,62.73
2023-01-21T19:17:49.183Z,64.60
2023-01-21T19:20:20.215Z,64.68
2023-01-21T19:22:50.747Z,65.33
2023-01-21T19:25:19.459Z,65.98
2023-01-21T19:27:49.697Z,65.82
2023-01-21T19:30:23.237Z,65.89
2023-01-21T19:32:52.267Z,65.49
2023-01-21T19:35:22.030Z,65.10
2023-01-21T19:37:51.226Z,65.27
2023-01-21T19:40:21.144Z,64.70
2023-01-21T19:42:49.561Z,64.61
2023-01-21T19:45:19.033Z,64.86
2023-01-21T19:47:49.323Z,64.40
2023-01-21T19:50:19.473Z,64.47
2023-01-21T19:52:48.553Z,64.40
2023-01-21T19:55:19.528Z,64.35
2023-01-21T19:57:53.533Z,64.67
2023-01-21T20:00:23.760Z,65.05
2023-01-21T20:02:51.630Z,64.10
2023-01-21T20:05:19.812Z,64.28
2023-01-21T20:07:50.167Z,64.18
2023-01-21T20:10:21.350Z,64.52
2023-01-21T20:12:49.499Z,64.62
2023-01-21T20:15:19.956Z,65.14
2023-01-21T20:17:52.447Z,65.66
2023-01-21T20:20:22.197Z,65.18
2023-01-21T20:22:50.288Z,65.50
2023-01-21T20:25:21.132Z,64.59
2023-01-21T20:27:52.421Z,63.69
2023-01-21T20:30:22.449Z,63.85
2023-01-21T20:32:50.716Z,63.26
2023-01-21T20:35:19.900Z,63.52
2023-01-21T20:37:49.794Z,63.58
2023-01-21T20:40:21.238Z,63.04
2023-01-21T20:42:49.663Z,62.99
2023-01-21T20:45:19.738Z,63.66
2023-01-21T20:47:50.722Z,64.23
2023-01-21T20:50:21.255Z,64.50
2023-01-21T20:52:49.829Z,64.46
2023-01-21T20:55:21.149Z,64.42
2023-01-21T20:57:49.438Z,64.72
2023-01-21T21:00:20.707Z,64.72
2023-01-21T21:02:48.987Z,64.73
2023-01-21T21:05:18.435Z,63.36
2023-01-21T21:07:46.524Z,63.87
2023-01-21T21:10:22.082Z,64.64
2023-01-21T21:12:51.043Z,64.16
2023-01-21T21:15:20.500Z,63.75
2023-01-21T21:17:49.207Z,63.68
2023-01-21T21:20:23.380Z,63.61
2023-01-21T21:22:51.219Z,62.93
2023-01-21T21:25:22.344Z,63.83
2023-01-21T21:27:50.486Z,65.76
2023-01-21T21:30:20.997Z,64.24
2023-01-21T21:32:48.886Z,63.71
2023-01-21T21:35:23.440Z,64.31
2023-01-21T21:37:52.218Z,63.96
2023-01-21T21:40:22.789Z,64.58
2023-01-21T21:43:08.323Z,64.55
2023-01-21T21:45:37.242Z,65.33
2023-01-21T21:48:23.165Z,65.46
2023-01-21T21:50:56.873Z,65.91
2023-01-21T21:53:25.224Z,66.01
2023-01-21T21:55:54.321Z,66.06
2023-01-21T21:58:22.139Z,66.13
2023-01-21T22:00:54.011Z,65.07
2023-01-21T22:03:21.835Z,64.77
2023-01-21T22:05:52.855Z,64.85
2023-01-21T22:08:20.737Z,64.23
2023-01-21T22:10:59.483Z,64.23
2023-01-21T22:13:28.517Z,64.41
2023-01-21T22:15:57.198Z,65.19
2023-01-21T22:18:25.560Z,64.85
2023-01-21T22:20:56.276Z,64.79
2023-01-21T22:23:24.172Z,65.29
2023-01-21T22:25:51.892Z,65.15
2023-01-21T22:28:21.587Z,64.85
2023-01-21T22:30:49.432Z,65.39
2023-01-21T22:33:17.311Z,65.57
2023-01-21T22:35:45.694Z,65.85
2023-01-21T22:38:13.640Z,66.53
2023-01-21T22:40:41.443Z,65.70
2023-01-21T22:43:09.257Z,65.78
2023-01-21T22:45:38.432Z,66.62
2023-01-21T22:48:06.485Z,65.98
2023-01-21T22:50:34.226Z,66.70
2023-01-21T22:53:02.010Z,66.69
2023-01-21T22:55:29.799Z,65.80
2023-01-21T22:57:57.545Z,65.81
2023-01-21T23:00:41.504Z,65.97
2023-01-21T23:03:10.525Z,65.65
2023-01-21T23:05:38.298Z,66.46
2023-01-21T23:08:06.714Z,66.51
2023-01-21T23:10:34.758Z,66.44
2023-01-21T23:13:02.563Z,66.26
2023-01-21T23:15:30.420Z,65.82
2023-01-21T23:17:59.579Z,66.17
2023-01-21T23:20:28.842Z,65.54
2023-01-21T23:22:57.124Z,64.79
2023-01-21T23:25:25.108Z,65.59
2023-01-21T23:27:52.859Z,66.48
2023-01-21T23:30:20.847Z,66.14
2023-01-21T23:32:49.051Z,66.25
2023-01-21T23:35:19.466Z,65.97
2023-01-21T23:37:47.527Z,65.63
2023-01-21T23:40:15.524Z,65.63
2023-01-21T23:42:43.451Z,65.88
2023-01-21T23:45:11.972Z,65.18
2023-01-21T23:47:39.750Z,64.88
2023-01-21T23:50:08.712Z,64.82
2023-01-21T23:52:38.746Z,64.18
2023-01-21T23:55:08.774Z,64.48
2023-01-21T23:57:36.891Z,63.68
